createdAt,value
2022-08-01T00:00:56.293Z,14.77
2022-08-01T00:05:01.023Z,16.20
2022-08-01T00:09:03.948Z,17.27
2022-08-01T00:13:06.817Z,16.77
2022-08-01T00:17:09.796Z,13.13
2022-08-01T00:21:13.905Z,15.05
2022-08-01T00:25:16.812Z,14.27
2022-08-01T00:30:10.036Z,15.45
2022-08-01T00:33:42.388Z,15.80
2022-08-01T00:37:46.511Z,15.13
2022-08-01T00:41:49.325Z,16.83
2022-08-01T00:46:02.805Z,15.77
2022-08-01T00:50:06.712Z,15.63
2022-08-01T00:54:10.988Z,15.18
2022-08-01T00:58:16.444Z,16.52
2022-08-01T01:02:20.701Z,19.05
2022-08-01T01:06:31.838Z,20.00
2022-08-01T01:10:42.813Z,17.45
2022-08-01T01:14:53.100Z,16.05
2022-08-01T01:18:59.035Z,18.67
2022-08-01T01:23:26.153Z,17.30
2022-08-01T01:27:41.635Z,16.27
2022-08-01T01:31:50.424Z,20.05
2022-08-01T01:35:55.649Z,19.23
2022-08-01T01:39:59.813Z,13.30
2022-08-01T01:44:03.736Z,10.57
2022-08-01T01:48:09.568Z,9.13
2022-08-01T01:52:15.178Z,6.18
2022-08-01T01:56:19.674Z,7.80
2022-08-01T02:00:23.275Z,5.85
2022-08-01T02:04:28.984Z,6.30
2022-08-01T02:08:33.035Z,8.82
2022-08-01T02:12:39.937Z,8.77
2022-08-01T02:16:44.955Z,6.32
2022-08-01T02:20:53.097Z,7.60
2022-08-01T02:25:01.352Z,8.73
2022-08-01T02:29:08.633Z,8.88
2022-08-01T02:33:18.193Z,10.10
2022-08-01T02:37:23.609Z,9.52
2022-08-01T02:41:28.968Z,9.52
2022-08-01T02:45:33.335Z,10.05
2022-08-01T02:49:41.248Z,9.57
2022-08-01T02:53:47.054Z,9.75
2022-08-01T02:57:56.757Z,9.73
2022-08-01T03:02:05.790Z,13.13
2022-08-01T03:06:09.489Z,12.00
2022-08-01T03:10:15.250Z,11.73
2022-08-01T03:14:20.046Z,11.95
2022-08-01T03:18:25.739Z,13.98
2022-08-01T03:22:31.093Z,14.00
2022-08-01T03:26:38.454Z,11.57
2022-08-01T03:30:42.718Z,11.73
2022-08-01T03:34:45.751Z,11.57
2022-08-01T03:38:51.471Z,11.35
2022-08-01T03:43:02.328Z,12.25
2022-08-01T03:47:09.491Z,13.05
2022-08-01T03:51:13.987Z,11.52
2022-08-01T03:55:18.812Z,12.35
2022-08-01T03:59:23.676Z,12.20
2022-08-01T04:03:27.081Z,11.68
2022-08-01T04:07:31.823Z,13.55
2022-08-01T04:11:35.337Z,12.27
2022-08-01T04:15:39.424Z,13.73
2022-08-01T04:19:42.298Z,12.48
2022-08-01T04:23:46.535Z,13.18
2022-08-01T04:27:52.728Z,12.02
2022-08-01T04:31:58.981Z,9.93
2022-08-01T04:36:04.973Z,14.90
2022-08-01T04:40:10.850Z,12.30
2022-08-01T04:44:14.321Z,11.13
2022-08-01T04:48:22.849Z,9.95
2022-08-01T04:52:34.096Z,10.65
2022-08-01T04:56:37.304Z,8.50
2022-08-01T05:00:40.165Z,8.27
2022-08-01T05:04:45.411Z,9.95
2022-08-01T05:08:48.213Z,9.23
2022-08-01T05:12:51.564Z,9.65
2022-08-01T05:16:54.661Z,10.95
2022-08-01T05:20:58.723Z,11.13
2022-08-01T05:25:01.618Z,12.82
2022-08-01T05:29:05.053Z,12.45
2022-08-01T05:33:07.786Z,11.50
2022-08-01T05:37:12.255Z,10.80
2022-08-01T05:41:15.115Z,13.30
2022-08-01T05:45:17.865Z,15.57
2022-08-01T05:49:20.930Z,12.93
2022-08-01T05:53:25.146Z,10.85
2022-08-01T05:57:27.945Z,11.23
2022-08-01T06:01:30.755Z,10.93
2022-08-01T06:05:33.502Z,12.23
2022-08-01T06:09:37.724Z,13.00
2022-08-01T06:13:45.606Z,11.50
2022-08-01T06:17:51.709Z,12.93
2022-08-01T06:21:54.519Z,11.93
2022-08-01T06:25:59.017Z,9.80
2022-08-01T06:30:01.873Z,11.02
2022-08-01T06:34:04.698Z,12.68
2022-08-01T06:38:07.483Z,10.73
2022-08-01T06:42:11.544Z,11.15
2022-08-01T06:46:14.352Z,12.10
2022-08-01T06:50:17.100Z,11.88
2022-08-01T06:54:19.873Z,12.07
2022-08-01T06:58:31.546Z,11.27
2022-08-01T07:02:34.573Z,10.95
2022-08-01T07:06:40.118Z,9.73
2022-08-01T07:10:44.147Z,6.32
2022-08-01T07:14:48.321Z,7.10
2022-08-01T07:18:51.054Z,5.47
2022-08-01T07:22:54.132Z,5.60
2022-08-01T07:26:59.829Z,6.28
2022-08-01T07:31:30.567Z,6.63
2022-08-01T07:35:43.875Z,8.38
2022-08-01T07:39:47.431Z,7.72
2022-08-01T07:43:57.338Z,6.93
2022-08-01T07:48:08.217Z,6.57
2022-08-01T07:52:12.332Z,4.43
2022-08-01T07:56:16.193Z,3.58
2022-08-01T08:00:19.750Z,3.13
2022-08-01T08:04:24.310Z,2.65
2022-08-01T08:08:27.355Z,4.15
2022-08-01T08:12:30.157Z,3.55
2022-08-01T08:16:32.918Z,4.10
2022-08-01T08:20:37.084Z,6.13
2022-08-01T08:24:46.556Z,5.43
2022-08-01T08:28:49.677Z,6.60
2022-08-01T08:32:52.472Z,4.60
2022-08-01T08:36:58.947Z,4.60
2022-08-01T08:41:01.995Z,4.00
2022-08-01T08:45:05.208Z,3.67
2022-08-01T08:49:21.212Z,3.83
2022-08-01T08:53:25.647Z,4.00
2022-08-01T08:57:40.318Z,3.65
2022-08-01T09:01:44.286Z,3.33
2022-08-01T09:05:50.522Z,3.67
2022-08-01T09:09:55.072Z,2.22
2022-08-01T09:14:05.912Z,2.17
2022-08-01T09:18:08.977Z,2.17
2022-08-01T09:22:14.256Z,2.58
2022-08-01T09:26:20.425Z,3.13
2022-08-01T09:30:26.223Z,2.08
2022-08-01T09:34:31.298Z,1.88
2022-08-01T09:38:34.118Z,3.47
2022-08-01T09:42:38.589Z,2.47
2022-08-01T09:46:52.508Z,2.58
2022-08-01T09:51:03.787Z,3.08
2022-08-01T09:55:24.199Z,1.98
2022-08-01T09:59:57.975Z,2.20
2022-08-01T10:04:17.485Z,1.90
2022-08-01T10:08:23.443Z,2.10
2022-08-01T10:12:34.314Z,3.10
2022-08-01T10:16:38.882Z,3.22
2022-08-01T10:20:43.742Z,2.03
2022-08-01T10:24:56.026Z,2.53
2022-08-01T10:28:59.119Z,1.30
2022-08-01T10:33:05.760Z,1.33
2022-08-01T10:37:12.452Z,2.17
2022-08-01T10:41:17.428Z,1.08
2022-08-01T10:45:20.673Z,0.40
2022-08-01T10:49:29.271Z,0.40
2022-08-01T10:53:49.887Z,1.23
2022-08-01T10:57:53.243Z,2.08
2022-08-01T11:02:00.412Z,2.03
2022-08-01T11:06:06.338Z,1.80
2022-08-01T11:10:18.895Z,2.97
2022-08-01T11:14:53.671Z,0.60
2022-08-01T11:18:52.766Z,2.88
2022-08-01T11:23:28.531Z,3.25
2022-08-01T11:27:33.669Z,2.33
2022-08-01T11:31:37.813Z,3.53
2022-08-01T11:36:17.322Z,2.80
2022-08-01T11:40:25.050Z,4.35
2022-08-01T11:44:30.119Z,4.40
2022-08-01T11:48:33.195Z,2.88
2022-08-01T11:52:37.072Z,1.52
2022-08-01T11:56:44.817Z,1.40
2022-08-01T12:00:54.203Z,2.38
2022-08-01T12:04:59.676Z,1.42
2022-08-01T12:09:20.887Z,1.13
2022-08-01T12:13:25.033Z,0.60
2022-08-01T12:17:35.697Z,1.20
2022-08-01T12:21:40.276Z,0.73
2022-08-01T12:25:44.717Z,1.50
2022-08-01T12:29:49.087Z,0.77
2022-08-01T12:33:51.891Z,0.60
2022-08-01T12:37:56.271Z,1.02
2022-08-01T12:41:59.692Z,1.13
2022-08-01T12:46:05.073Z,0.95
2022-08-01T12:50:10.465Z,2.53
2022-08-01T12:54:13.305Z,1.30
2022-08-01T12:58:18.097Z,1.17
2022-08-01T13:02:33.038Z,1.35
2022-08-01T13:06:36.952Z,1.08
2022-08-01T13:10:39.917Z,1.58
2022-08-01T13:14:42.695Z,2.75
2022-08-01T13:18:52.796Z,4.85
2022-08-01T13:22:55.866Z,3.97
2022-08-01T13:27:02.093Z,2.47
2022-08-01T13:31:07.912Z,3.25
2022-08-01T13:35:14.283Z,2.55
2022-08-01T13:39:35.050Z,1.60
2022-08-01T13:43:58.657Z,3.03
2022-08-01T13:48:12.268Z,1.70
2022-08-01T13:52:17.367Z,1.67
2022-08-01T13:56:22.656Z,1.95
2022-08-01T14:00:25.638Z,2.00
2022-08-01T14:04:29.099Z,1.60
2022-08-01T14:08:37.526Z,1.88
2022-08-01T14:12:40.513Z,2.45
2022-08-01T14:16:45.809Z,3.67
2022-08-01T14:20:48.737Z,2.50
2022-08-01T14:24:59.501Z,2.60
2022-08-01T14:29:04.660Z,2.35
2022-08-01T14:33:07.552Z,2.30
2022-08-01T14:37:10.668Z,3.05
2022-08-01T14:41:15.968Z,3.03
2022-08-01T14:45:18.806Z,3.35
2022-08-01T14:49:21.977Z,2.05
2022-08-01T14:53:24.983Z,2.20
2022-08-01T14:57:29.162Z,2.92
2022-08-01T15:01:32.018Z,1.65
2022-08-01T15:05:34.913Z,4.53
2022-08-01T15:09:37.922Z,1.25
2022-08-01T15:13:42.954Z,2.92
2022-08-01T15:17:46.008Z,2.35
2022-08-01T15:21:48.887Z,2.03
2022-08-01T15:25:52.061Z,1.17
2022-08-01T15:29:57.129Z,1.75
2022-08-01T15:34:01.813Z,2.42
2022-08-01T15:38:06.555Z,1.70
2022-08-01T15:42:11.651Z,1.40
2022-08-01T15:46:15.756Z,1.92
2022-08-01T15:50:18.643Z,1.50
2022-08-01T15:54:21.809Z,1.85
2022-08-01T15:58:24.877Z,1.77
2022-08-01T16:02:29.246Z,0.98
2022-08-01T16:06:32.932Z,1.92
2022-08-01T16:10:35.858Z,3.20
2022-08-01T16:14:38.645Z,3.85
2022-08-01T16:18:42.811Z,3.38
2022-08-01T16:22:45.614Z,1.42
2022-08-01T16:26:48.398Z,2.08
2022-08-01T16:31:09.679Z,1.42
2022-08-01T16:35:15.461Z,1.83
2022-08-01T16:39:23.061Z,1.70
2022-08-01T16:43:26.434Z,3.95
2022-08-01T16:47:29.224Z,2.42
2022-08-01T16:51:34.143Z,4.18
2022-08-01T16:55:49.418Z,3.33
2022-08-01T16:59:53.677Z,2.28
2022-08-01T17:03:59.531Z,3.30
2022-08-01T17:08:06.223Z,1.92
2022-08-01T17:12:10.610Z,6.97
2022-08-01T17:16:13.800Z,4.57
2022-08-01T17:20:16.586Z,4.47
2022-08-01T17:24:21.791Z,4.20
2022-08-01T17:28:26.089Z,2.78
2022-08-01T17:32:28.956Z,3.15
2022-08-01T17:36:31.866Z,3.10
2022-08-01T17:40:40.803Z,2.95
2022-08-01T17:44:49.057Z,3.92
2022-08-01T17:48:54.915Z,4.25
2022-08-01T17:52:57.813Z,6.15
2022-08-01T17:57:01.951Z,2.85
2022-08-01T18:01:04.991Z,4.57
2022-08-01T18:05:10.750Z,3.63
2022-08-01T18:09:13.757Z,4.38
2022-08-01T18:13:18.329Z,5.85
2022-08-01T18:17:23.439Z,3.85
2022-08-01T18:21:26.381Z,4.25
2022-08-01T18:25:30.346Z,5.25
2022-08-01T18:29:47.845Z,3.40
2022-08-01T18:33:51.341Z,4.47
2022-08-01T18:37:55.404Z,6.75
2022-08-01T18:42:00.091Z,4.00
2022-08-01T18:46:06.286Z,4.70
2022-08-01T18:50:10.508Z,4.35
2022-08-01T18:54:13.865Z,5.93
2022-08-01T18:58:16.874Z,4.72
2022-08-01T19:02:21.119Z,6.55
2022-08-01T19:06:24.679Z,3.95
2022-08-01T19:10:27.519Z,4.35
2022-08-01T19:14:30.555Z,5.50
2022-08-01T19:18:35.038Z,4.25
2022-08-01T19:22:38.681Z,3.85
2022-08-01T19:26:46.966Z,8.48
2022-08-01T19:30:53.451Z,5.47
2022-08-01T19:35:04.840Z,4.07
2022-08-01T19:39:10.034Z,5.40
2022-08-01T19:43:13.708Z,4.38
2022-08-01T19:47:21.525Z,4.32
2022-08-01T19:51:33.333Z,4.72
2022-08-01T19:55:40.606Z,5.55
2022-08-01T20:00:06.295Z,4.65
2022-08-01T20:04:10.137Z,5.82
2022-08-01T20:08:16.493Z,5.20
2022-08-01T20:12:21.931Z,5.05
2022-08-01T20:16:25.107Z,8.45
2022-08-01T20:20:28.725Z,7.60
2022-08-01T20:24:38.105Z,6.63
2022-08-01T20:28:50.589Z,6.05
2022-08-01T20:32:54.605Z,8.77
2022-08-01T20:37:06.741Z,11.23
2022-08-01T20:41:11.808Z,12.95
2022-08-01T20:45:18.715Z,11.43
2022-08-01T20:49:23.331Z,9.52
2022-08-01T20:53:26.318Z,9.30
2022-08-01T20:57:32.301Z,8.48
2022-08-01T21:01:40.054Z,7.95
2022-08-01T21:05:55.661Z,8.55
2022-08-01T21:10:05.907Z,7.05
2022-08-01T21:14:13.246Z,8.02
2022-08-01T21:18:19.917Z,7.70
2022-08-01T21:22:29.738Z,7.65
2022-08-01T21:26:35.747Z,6.20
2022-08-01T21:30:55.491Z,8.18
2022-08-01T21:35:01.363Z,5.72
2022-08-01T21:39:05.815Z,8.23
2022-08-01T21:43:12.945Z,6.78
2022-08-01T21:47:19.605Z,6.30
2022-08-01T21:51:35.326Z,7.40
2022-08-01T21:55:51.819Z,6.05
2022-08-01T22:00:06.446Z,6.00
2022-08-01T22:04:16.037Z,8.05
2022-08-01T22:08:24.804Z,9.45
2022-08-01T22:12:28.279Z,25.33
2022-08-01T22:16:33.251Z,8.75
2022-08-01T22:20:37.930Z,7.53
2022-08-01T22:24:41.947Z,7.13
2022-08-01T22:28:45.729Z,7.38
2022-08-01T22:33:07.112Z,8.25
2022-08-01T22:37:14.782Z,7.05
2022-08-01T22:41:20.038Z,6.68
2022-08-01T22:45:26.736Z,9.70
2022-08-01T22:49:35.777Z,9.65
2022-08-01T22:53:51.325Z,9.15
2022-08-01T22:57:59.261Z,8.15
2022-08-01T23:02:03.918Z,7.15
2022-08-01T23:06:12.319Z,7.20
2022-08-01T23:10:22.031Z,9.63
2022-08-01T23:14:25.437Z,7.68
2022-08-01T23:18:29.841Z,7.25
2022-08-01T23:22:34.214Z,8.45
2022-08-01T23:26:38.937Z,7.60
2022-08-01T23:30:41.876Z,7.70
2022-08-01T23:34:45.805Z,6.82
2022-08-01T23:38:48.765Z,8.40
2022-08-01T23:42:53.487Z,10.25
2022-08-01T23:46:56.244Z,9.15
2022-08-01T23:50:59.024Z,6.80
2022-08-01T23:55:11.566Z,7.32
2022-08-01T23:59:19.175Z,7.10
